createdAt,value
2019-01-29T00:00:30.924Z,59.40
2019-01-29T00:02:59.426Z,59.30
2019-01-29T00:05:27.916Z,59.30
2019-01-29T00:07:56.318Z,58.90
2019-01-29T00:10:24.771Z,58.80
2019-01-29T00:12:53.182Z,58.70
2019-01-29T00:15:22.646Z,59.00
2019-01-29T00:17:51.543Z,59.20
2019-01-29T00:20:20.094Z,59.00
2019-01-29T00:22:48.477Z,58.80
2019-01-29T00:25:16.991Z,58.70
2019-01-29T00:27:45.568Z,57.60
2019-01-29T00:30:15.373Z,58.10
2019-01-29T00:32:43.932Z,58.10
2019-01-29T00:35:12.488Z,57.10
2019-01-29T00:37:41.052Z,57.30
2019-01-29T00:40:15.006Z,57.40
2019-01-29T00:42:43.461Z,57.70
2019-01-29T00:45:16.669Z,57.40
2019-01-29T00:47:45.084Z,57.20
2019-01-29T00:50:15.433Z,56.80
2019-01-29T00:52:43.912Z,56.60
2019-01-29T00:55:14.574Z,56.30
2019-01-29T00:57:43.141Z,56.10
2019-01-29T01:00:14.850Z,56.00
2019-01-29T01:02:43.556Z,55.30
2019-01-29T01:05:12.173Z,55.70
2019-01-29T01:07:40.613Z,55.20
2019-01-29T01:10:11.761Z,55.20
2019-01-29T01:12:40.168Z,55.20
2019-01-29T01:15:11.008Z,55.50
2019-01-29T01:17:39.464Z,55.90
2019-01-29T01:20:11.262Z,55.30
2019-01-29T01:22:39.688Z,55.80
2019-01-29T01:25:09.325Z,55.10
2019-01-29T01:27:37.732Z,55.90
2019-01-29T01:30:09.577Z,55.20
2019-01-29T01:32:37.987Z,56.00
2019-01-29T01:35:07.045Z,55.70
2019-01-29T01:37:35.569Z,55.90
2019-01-29T01:40:07.086Z,55.90
2019-01-29T01:42:35.501Z,56.50
2019-01-29T01:45:05.505Z,56.90
2019-01-29T01:47:34.196Z,56.60
2019-01-29T01:50:02.598Z,57.30
2019-01-29T01:52:30.989Z,57.10
2019-01-29T01:54:59.553Z,57.20
2019-01-29T01:57:28.025Z,58.00
2019-01-29T01:59:56.445Z,58.30
2019-01-29T02:02:24.865Z,58.70
2019-01-29T02:04:53.329Z,58.70
2019-01-29T02:07:21.735Z,59.10
2019-01-29T02:09:50.198Z,59.00
2019-01-29T02:12:18.641Z,58.90
2019-01-29T02:14:47.044Z,58.90
2019-01-29T02:17:15.478Z,58.80
2019-01-29T02:19:43.878Z,58.90
2019-01-29T02:22:12.313Z,58.60
2019-01-29T02:24:40.708Z,58.70
2019-01-29T02:27:09.124Z,58.90
2019-01-29T02:29:37.565Z,59.00
2019-01-29T02:32:05.937Z,59.10
2019-01-29T02:34:34.352Z,58.90
2019-01-29T02:37:02.744Z,59.10
2019-01-29T02:39:31.156Z,59.10
2019-01-29T02:41:59.586Z,59.50
2019-01-29T02:44:28.002Z,59.90
2019-01-29T02:46:56.389Z,59.30
2019-01-29T02:49:24.797Z,59.70
2019-01-29T02:51:53.224Z,59.40
2019-01-29T02:54:21.614Z,59.00
2019-01-29T02:56:50.013Z,59.60
2019-01-29T02:59:18.426Z,59.70
2019-01-29T03:01:46.830Z,59.30
2019-01-29T03:04:15.283Z,59.30
2019-01-29T03:06:43.772Z,58.90
2019-01-29T03:09:12.250Z,59.00
2019-01-29T03:11:40.753Z,58.90
2019-01-29T03:14:09.165Z,59.00
2019-01-29T03:16:37.571Z,59.30
2019-01-29T03:19:06.024Z,59.30
2019-01-29T03:21:34.456Z,59.60
2019-01-29T03:24:02.890Z,59.30
2019-01-29T03:26:31.277Z,59.80
2019-01-29T03:28:59.699Z,59.50
2019-01-29T03:31:28.129Z,59.40
2019-01-29T03:33:56.974Z,60.30
2019-01-29T03:36:25.398Z,60.80
2019-01-29T03:38:53.980Z,61.20
2019-01-29T03:41:22.376Z,61.10
2019-01-29T03:43:50.806Z,61.40
2019-01-29T03:46:19.298Z,61.90
2019-01-29T03:48:47.751Z,62.20
2019-01-29T03:51:16.200Z,62.10
2019-01-29T03:53:44.625Z,62.40
2019-01-29T03:56:13.061Z,63.00
2019-01-29T03:58:41.699Z,63.10
2019-01-29T04:01:10.123Z,63.00
2019-01-29T04:03:38.524Z,62.60
2019-01-29T04:06:06.990Z,62.50
2019-01-29T04:08:35.388Z,62.50
2019-01-29T04:11:03.934Z,62.30
2019-01-29T04:13:32.787Z,62.20
2019-01-29T04:16:01.198Z,62.50
2019-01-29T04:18:29.617Z,62.70
2019-01-29T04:20:58.012Z,62.70
2019-01-29T04:23:26.441Z,62.80
2019-01-29T04:25:55.329Z,62.60
2019-01-29T04:28:23.788Z,63.20
2019-01-29T04:30:52.193Z,63.30
2019-01-29T04:33:20.585Z,63.20
2019-01-29T04:35:49.010Z,63.30
2019-01-29T04:38:17.693Z,62.60
2019-01-29T04:40:46.094Z,62.30
2019-01-29T04:43:14.505Z,61.80
2019-01-29T04:45:42.994Z,62.20
2019-01-29T04:48:11.392Z,62.10
2019-01-29T04:50:39.809Z,62.10
2019-01-29T04:53:08.269Z,62.40
2019-01-29T04:55:36.737Z,62.20
2019-01-29T04:58:05.147Z,61.50
2019-01-29T05:00:33.595Z,61.70
2019-01-29T05:03:01.992Z,61.90
2019-01-29T05:05:30.410Z,61.80
2019-01-29T05:07:59.055Z,62.00
2019-01-29T05:10:27.713Z,61.90
2019-01-29T05:12:56.129Z,62.20
2019-01-29T05:15:24.551Z,61.90
2019-01-29T05:17:52.963Z,62.00
2019-01-29T05:20:22.199Z,61.90
2019-01-29T05:22:50.669Z,62.20
2019-01-29T05:25:19.316Z,61.80
2019-01-29T05:27:47.925Z,61.70
2019-01-29T05:30:20.663Z,61.80
2019-01-29T05:32:49.482Z,61.80
2019-01-29T05:35:17.993Z,62.00
2019-01-29T05:37:46.407Z,61.90
2019-01-29T05:40:17.434Z,61.80
2019-01-29T05:42:46.580Z,62.10
2019-01-29T05:45:17.125Z,61.70
2019-01-29T05:47:45.540Z,62.00
2019-01-29T05:50:15.529Z,62.10
2019-01-29T05:52:43.993Z,61.90
2019-01-29T05:55:14.151Z,61.70
2019-01-29T05:57:42.613Z,62.00
2019-01-29T06:00:17.322Z,62.00
2019-01-29T06:02:45.821Z,61.50
2019-01-29T06:05:14.686Z,61.80
2019-01-29T06:07:45.323Z,61.90
2019-01-29T06:10:15.669Z,61.80
2019-01-29T06:12:44.182Z,61.90
2019-01-29T06:15:20.821Z,61.70
2019-01-29T06:17:49.428Z,61.20
2019-01-29T06:20:23.936Z,60.40
2019-01-29T06:22:52.616Z,60.30
2019-01-29T06:25:21.407Z,60.40
2019-01-29T06:27:49.994Z,60.40
2019-01-29T06:30:20.588Z,60.20
2019-01-29T06:32:49.299Z,60.00
2019-01-29T06:35:20.412Z,60.30
2019-01-29T06:37:49.165Z,60.50
2019-01-29T06:40:20.294Z,60.30
2019-01-29T06:42:48.855Z,59.90
2019-01-29T06:45:19.207Z,60.50
2019-01-29T06:47:47.747Z,59.50
2019-01-29T06:50:18.362Z,59.20
2019-01-29T06:52:46.845Z,59.30
2019-01-29T06:55:17.701Z,59.10
2019-01-29T06:57:54.460Z,59.30
2019-01-29T07:00:19.853Z,58.80
2019-01-29T07:02:48.576Z,58.60
2019-01-29T07:05:17.095Z,58.40
2019-01-29T07:07:45.612Z,58.00
2019-01-29T07:10:16.613Z,58.70
2019-01-29T07:12:45.162Z,58.60
2019-01-29T07:15:45.123Z,58.50
2019-01-29T07:18:18.202Z,58.60
2019-01-29T07:20:46.677Z,59.10
2019-01-29T07:23:15.232Z,58.80
2019-01-29T07:25:43.749Z,58.70
2019-01-29T07:28:13.375Z,58.50
2019-01-29T07:30:41.951Z,58.10
2019-01-29T07:33:11.842Z,58.70
2019-01-29T07:35:40.261Z,59.40
2019-01-29T07:38:09.108Z,60.00
2019-01-29T07:40:37.708Z,60.40
2019-01-29T07:43:06.295Z,60.90
2019-01-29T07:45:34.900Z,61.30
2019-01-29T07:48:03.375Z,61.40
2019-01-29T07:50:31.864Z,61.20
2019-01-29T07:53:00.284Z,60.80
2019-01-29T07:55:28.768Z,59.90
2019-01-29T07:57:57.222Z,60.20
2019-01-29T08:00:25.734Z,59.90
2019-01-29T08:02:54.140Z,59.60
2019-01-29T08:05:22.645Z,59.40
2019-01-29T08:07:51.188Z,59.40
2019-01-29T08:10:19.838Z,58.70
2019-01-29T08:12:51.215Z,58.10
2019-01-29T08:15:21.795Z,58.30
2019-01-29T08:17:50.954Z,57.10
2019-01-29T08:20:19.511Z,57.20
2019-01-29T08:22:47.921Z,56.50
2019-01-29T08:25:16.979Z,56.70
2019-01-29T08:27:45.388Z,56.50
2019-01-29T08:30:18.332Z,55.70
2019-01-29T08:32:46.856Z,55.20
2019-01-29T08:35:17.039Z,55.20
2019-01-29T08:37:45.576Z,55.50
2019-01-29T08:40:17.824Z,54.80
2019-01-29T08:42:46.609Z,54.50
2019-01-29T08:45:17.001Z,54.20
2019-01-29T08:47:45.505Z,53.90
2019-01-29T08:50:19.596Z,53.90
2019-01-29T08:52:48.008Z,53.30
2019-01-29T08:55:16.501Z,53.70
2019-01-29T08:57:44.909Z,53.00
2019-01-29T09:00:18.570Z,53.10
2019-01-29T09:02:47.950Z,52.50
2019-01-29T09:05:16.805Z,52.80
2019-01-29T09:07:45.329Z,52.40
2019-01-29T09:10:17.379Z,52.70
2019-01-29T09:12:45.873Z,52.00
2019-01-29T09:15:16.769Z,50.90
2019-01-29T09:17:45.604Z,50.40
2019-01-29T09:20:16.863Z,50.30
2019-01-29T09:22:45.309Z,50.10
2019-01-29T09:25:20.915Z,50.30
2019-01-29T09:27:45.295Z,50.40
2019-01-29T09:30:18.533Z,49.40
2019-01-29T09:32:49.935Z,49.50
2019-01-29T09:35:18.386Z,49.30
2019-01-29T09:37:46.875Z,48.80
2019-01-29T09:40:23.529Z,48.50
2019-01-29T09:42:52.064Z,48.00
2019-01-29T09:45:20.951Z,45.80
2019-01-29T09:47:49.585Z,46.10
2019-01-29T09:50:22.638Z,46.40
2019-01-29T09:52:53.027Z,46.40
2019-01-29T09:55:28.880Z,45.80
2019-01-29T09:57:53.154Z,45.90
2019-01-29T10:00:30.253Z,45.50
2019-01-29T10:02:58.841Z,44.90
2019-01-29T10:05:27.511Z,44.90
2019-01-29T10:07:56.405Z,44.90
2019-01-29T10:10:25.043Z,45.30
2019-01-29T10:12:53.625Z,44.30
2019-01-29T10:15:27.456Z,45.20
2019-01-29T10:17:55.947Z,45.70
2019-01-29T10:20:24.933Z,44.90
2019-01-29T10:22:53.384Z,44.50
2019-01-29T10:25:23.773Z,44.20
2019-01-29T10:27:52.253Z,43.90
2019-01-29T10:30:25.549Z,43.50
2019-01-29T10:32:55.067Z,42.70
2019-01-29T10:35:26.209Z,44.00
2019-01-29T10:37:54.650Z,43.60
2019-01-29T10:40:25.717Z,43.40
2019-01-29T10:42:55.634Z,43.50
2019-01-29T10:45:25.600Z,43.50
2019-01-29T10:47:54.032Z,43.90
2019-01-29T10:50:24.960Z,42.80
2019-01-29T10:52:54.008Z,43.10
2019-01-29T10:55:22.698Z,43.70
2019-01-29T10:57:51.290Z,43.30
2019-01-29T11:00:38.118Z,42.40
2019-01-29T11:03:07.519Z,42.80
2019-01-29T11:05:36.011Z,42.80
2019-01-29T11:08:04.974Z,42.70
2019-01-29T11:10:33.396Z,42.90
2019-01-29T11:13:01.915Z,43.70
2019-01-29T11:15:37.186Z,43.00
2019-01-29T11:18:08.725Z,43.50
2019-01-29T11:20:37.290Z,43.70
2019-01-29T11:23:05.796Z,43.30
2019-01-29T11:25:34.281Z,43.60
2019-01-29T11:28:03.975Z,43.40
2019-01-29T11:30:33.215Z,43.00
2019-01-29T11:33:01.713Z,43.00
2019-01-29T11:35:30.199Z,43.00
2019-01-29T11:37:59.319Z,42.80
2019-01-29T11:40:30.729Z,42.90
2019-01-29T11:42:59.354Z,42.20
2019-01-29T11:45:36.700Z,42.30
2019-01-29T11:48:05.590Z,42.10
2019-01-29T11:50:34.454Z,41.40
2019-01-29T11:53:02.993Z,41.80
2019-01-29T11:55:31.457Z,41.30
2019-01-29T11:58:00.049Z,41.00
2019-01-29T12:00:35.461Z,41.30
2019-01-29T12:03:04.364Z,39.90
2019-01-29T12:05:32.911Z,40.00
2019-01-29T12:08:01.396Z,40.50
2019-01-29T12:10:29.933Z,39.40
2019-01-29T12:12:58.355Z,39.20
2019-01-29T12:15:26.949Z,39.60
2019-01-29T12:17:55.352Z,39.80
2019-01-29T12:20:24.105Z,39.30
2019-01-29T12:22:52.615Z,38.90
2019-01-29T12:25:21.216Z,37.90
2019-01-29T12:27:49.996Z,38.00
2019-01-29T12:30:29.206Z,38.50
2019-01-29T12:32:59.755Z,38.00
2019-01-29T12:35:28.519Z,37.90
2019-01-29T12:37:57.025Z,37.10
2019-01-29T12:40:25.498Z,37.50
2019-01-29T12:42:54.509Z,38.20
2019-01-29T12:45:23.203Z,38.30
2019-01-29T12:47:51.676Z,38.00
2019-01-29T12:50:23.124Z,38.10
2019-01-29T12:52:56.220Z,38.40
2019-01-29T12:55:24.733Z,38.30
2019-01-29T12:57:53.172Z,38.20
2019-01-29T13:00:23.238Z,37.60
2019-01-29T13:02:51.660Z,37.90
2019-01-29T13:05:20.460Z,38.00
2019-01-29T13:07:48.885Z,37.10
2019-01-29T13:10:22.506Z,37.10
2019-01-29T13:12:51.326Z,37.50
2019-01-29T13:15:25.672Z,36.80
2019-01-29T13:17:54.068Z,36.80
2019-01-29T13:20:22.603Z,36.90
2019-01-29T13:22:51.101Z,36.80
2019-01-29T13:25:19.608Z,36.60
2019-01-29T13:27:48.009Z,36.20
2019-01-29T13:30:19.548Z,36.40
2019-01-29T13:32:47.977Z,36.80
2019-01-29T13:35:17.602Z,37.70
2019-01-29T13:37:46.086Z,37.30
2019-01-29T13:40:15.281Z,36.60
2019-01-29T13:42:44.073Z,35.30
2019-01-29T13:45:14.795Z,35.10
2019-01-29T13:47:43.397Z,35.00
2019-01-29T13:50:20.555Z,33.50
2019-01-29T13:52:49.131Z,34.40
2019-01-29T13:55:17.971Z,35.00
2019-01-29T13:57:46.470Z,36.20
2019-01-29T14:00:29.886Z,35.60
2019-01-29T14:02:58.385Z,34.90
2019-01-29T14:05:26.880Z,34.90
2019-01-29T14:07:56.405Z,35.10
2019-01-29T14:10:24.948Z,35.00
2019-01-29T14:12:58.278Z,35.00
2019-01-29T14:15:33.178Z,36.00
2019-01-29T14:18:01.595Z,36.20
2019-01-29T14:20:30.443Z,35.10
2019-01-29T14:22:59.166Z,36.00
2019-01-29T14:25:27.693Z,36.80
2019-01-29T14:27:56.209Z,37.50
2019-01-29T14:30:27.145Z,38.10
2019-01-29T14:32:55.648Z,38.30
2019-01-29T14:35:24.157Z,38.70
2019-01-29T14:38:01.785Z,39.10
2019-01-29T14:40:31.119Z,39.10
2019-01-29T14:42:59.533Z,39.40
2019-01-29T14:45:32.483Z,38.30
2019-01-29T14:48:00.897Z,39.30
2019-01-29T14:50:29.929Z,39.10
2019-01-29T14:52:58.542Z,38.40
2019-01-29T14:55:27.735Z,38.60
2019-01-29T14:57:56.361Z,38.40
2019-01-29T15:00:32.903Z,39.00
2019-01-29T15:03:01.442Z,39.30
2019-01-29T15:05:30.037Z,39.80
2019-01-29T15:07:58.934Z,40.10
2019-01-29T15:10:28.941Z,39.80
2019-01-29T15:12:57.473Z,40.00
2019-01-29T15:15:35.834Z,40.10
2019-01-29T15:18:15.487Z,39.80
2019-01-29T15:20:43.969Z,40.20
2019-01-29T15:23:12.639Z,39.50
2019-01-29T15:25:41.108Z,39.70
2019-01-29T15:28:09.690Z,40.10
2019-01-29T15:30:38.176Z,39.30
2019-01-29T15:33:06.761Z,39.30
2019-01-29T15:35:35.272Z,38.90
2019-01-29T15:38:04.371Z,38.60
2019-01-29T15:40:32.847Z,38.60
2019-01-29T15:43:01.345Z,38.60
2019-01-29T15:45:30.599Z,38.60
2019-01-29T15:47:59.033Z,38.40
2019-01-29T15:50:32.966Z,38.50
2019-01-29T15:53:01.624Z,38.40
2019-01-29T15:55:30.106Z,39.20
2019-01-29T15:57:58.637Z,40.10
2019-01-29T16:00:34.935Z,41.30
2019-01-29T16:03:03.961Z,42.10
2019-01-29T16:05:42.828Z,42.80
2019-01-29T16:08:13.624Z,43.20
2019-01-29T16:10:43.912Z,43.90
2019-01-29T16:13:12.379Z,44.10
2019-01-29T16:15:41.770Z,44.60
2019-01-29T16:18:11.171Z,44.80
2019-01-29T16:20:39.853Z,45.00
2019-01-29T16:23:08.421Z,45.30
2019-01-29T16:25:38.663Z,45.60
2019-01-29T16:28:07.236Z,45.70
2019-01-29T16:30:37.169Z,46.60
2019-01-29T16:33:06.048Z,46.40
2019-01-29T16:35:36.265Z,46.80
2019-01-29T16:38:06.344Z,46.40
2019-01-29T16:40:37.620Z,46.40
2019-01-29T16:43:06.190Z,46.70
2019-01-29T16:45:35.810Z,46.80
2019-01-29T16:48:06.397Z,47.30
2019-01-29T16:50:37.027Z,47.30
2019-01-29T16:53:07.238Z,47.30
2019-01-29T16:55:36.105Z,47.50
2019-01-29T16:58:05.895Z,47.60
2019-01-29T17:00:36.365Z,48.20
2019-01-29T17:03:05.253Z,47.70
2019-01-29T17:05:34.483Z,48.40
2019-01-29T17:08:05.334Z,48.50
2019-01-29T17:10:34.548Z,49.00
2019-01-29T17:13:03.097Z,48.50
2019-01-29T17:15:33.881Z,48.40
2019-01-29T17:18:02.886Z,48.70
2019-01-29T17:20:36.987Z,49.60
2019-01-29T17:23:06.905Z,49.00
2019-01-29T17:25:35.444Z,49.30
2019-01-29T17:28:04.005Z,49.40
2019-01-29T17:30:37.991Z,49.20
2019-01-29T17:33:07.603Z,49.20
2019-01-29T17:35:37.553Z,49.70
2019-01-29T17:38:06.201Z,49.10
2019-01-29T17:40:34.753Z,49.50
2019-01-29T17:43:03.238Z,49.60
2019-01-29T17:45:34.352Z,50.00
2019-01-29T17:48:03.132Z,50.30
2019-01-29T17:50:40.149Z,50.70
2019-01-29T17:53:08.765Z,50.90
2019-01-29T17:55:38.817Z,51.00
2019-01-29T17:58:08.336Z,51.20
2019-01-29T18:00:38.715Z,51.60
2019-01-29T18:03:07.794Z,51.80
2019-01-29T18:05:36.412Z,51.90
2019-01-29T18:08:05.615Z,51.60
2019-01-29T18:10:34.471Z,51.80
2019-01-29T18:13:03.179Z,52.00
2019-01-29T18:15:32.596Z,51.80
2019-01-29T18:18:01.299Z,51.80
2019-01-29T18:20:30.164Z,51.90
2019-01-29T18:22:58.798Z,51.90
2019-01-29T18:25:27.587Z,52.20
2019-01-29T18:28:01.256Z,52.10
2019-01-29T18:30:34.337Z,52.20
2019-01-29T18:33:03.184Z,52.50
2019-01-29T18:35:31.960Z,52.50
2019-01-29T18:38:01.371Z,52.80
2019-01-29T18:40:33.175Z,53.00
2019-01-29T18:43:02.856Z,53.20
2019-01-29T18:45:31.495Z,53.30
2019-01-29T18:48:00.442Z,53.70
2019-01-29T18:50:29.218Z,53.70
2019-01-29T18:52:57.904Z,54.00
2019-01-29T18:55:26.529Z,54.00
2019-01-29T18:57:55.374Z,54.30
2019-01-29T19:00:27.719Z,54.40
2019-01-29T19:02:56.846Z,54.60
2019-01-29T19:05:26.889Z,54.70
2019-01-29T19:07:55.607Z,55.00
2019-01-29T19:10:24.650Z,54.90
2019-01-29T19:12:53.363Z,54.90
2019-01-29T19:15:24.649Z,55.00
2019-01-29T19:17:53.809Z,55.10
2019-01-29T19:20:24.911Z,55.10
2019-01-29T19:22:54.108Z,55.30
2019-01-29T19:25:23.225Z,55.50
2019-01-29T19:27:52.807Z,55.60
2019-01-29T19:30:27.230Z,55.90
2019-01-29T19:32:56.747Z,56.20
2019-01-29T19:35:26.223Z,56.70
2019-01-29T19:37:55.995Z,56.70
2019-01-29T19:40:25.435Z,57.10
2019-01-29T19:42:54.668Z,57.20
2019-01-29T19:45:26.900Z,57.60
2019-01-29T19:47:56.445Z,57.70
2019-01-29T19:50:30.602Z,58.00
2019-01-29T19:52:59.758Z,58.00
2019-01-29T19:55:29.129Z,58.10
2019-01-29T19:58:08.793Z,58.60
2019-01-29T20:00:39.208Z,58.60
2019-01-29T20:03:07.931Z,58.50
2019-01-29T20:05:37.284Z,58.50
2019-01-29T20:08:06.191Z,58.20
2019-01-29T20:10:35.586Z,58.20
2019-01-29T20:13:05.247Z,58.10
2019-01-29T20:15:34.691Z,58.00
2019-01-29T20:18:04.051Z,57.80
2019-01-29T20:20:35.752Z,57.80
2019-01-29T20:23:08.121Z,57.80
2019-01-29T20:25:35.636Z,58.00
2019-01-29T20:28:05.720Z,57.90
2019-01-29T20:30:36.635Z,57.90
2019-01-29T20:33:05.530Z,57.60
2019-01-29T20:35:34.149Z,57.50
2019-01-29T20:38:02.542Z,57.50
2019-01-29T20:40:31.533Z,57.30
2019-01-29T20:43:00.018Z,57.40
2019-01-29T20:45:28.520Z,57.50
2019-01-29T20:47:57.030Z,57.30
2019-01-29T20:50:30.826Z,57.30
2019-01-29T20:52:59.361Z,57.40
2019-01-29T20:55:27.869Z,57.40
2019-01-29T20:57:56.639Z,57.40
2019-01-29T21:00:33.895Z,57.80
2019-01-29T21:03:02.293Z,57.80
2019-01-29T21:05:30.806Z,57.80
2019-01-29T21:08:00.601Z,57.60
2019-01-29T21:10:29.391Z,57.60
2019-01-29T21:12:57.847Z,57.80
2019-01-29T21:15:37.671Z,57.90
2019-01-29T21:17:57.978Z,57.60
2019-01-29T21:20:29.112Z,57.50
2019-01-29T21:22:58.202Z,57.60
2019-01-29T21:25:26.783Z,57.70
2019-01-29T21:27:55.255Z,57.90
2019-01-29T21:30:29.351Z,58.10
2019-01-29T21:32:57.842Z,58.30
2019-01-29T21:35:26.479Z,58.30
2019-01-29T21:37:55.074Z,58.20
2019-01-29T21:40:24.786Z,58.10
2019-01-29T21:42:53.639Z,58.10
2019-01-29T21:45:23.609Z,58.00
2019-01-29T21:47:54.266Z,58.10
2019-01-29T21:50:25.342Z,58.10
2019-01-29T21:52:53.939Z,58.20
2019-01-29T21:55:22.599Z,57.30
2019-01-29T21:57:51.051Z,57.80
2019-01-29T22:00:28.498Z,57.80
2019-01-29T22:02:57.083Z,57.50
2019-01-29T22:05:25.560Z,57.40
2019-01-29T22:07:54.088Z,57.20
2019-01-29T22:10:22.511Z,57.10
2019-01-29T22:12:50.989Z,57.60
2019-01-29T22:15:21.609Z,57.50
2019-01-29T22:17:50.284Z,57.70
2019-01-29T22:20:20.588Z,57.40
2019-01-29T22:22:49.183Z,57.60
2019-01-29T22:25:22.989Z,57.60
2019-01-29T22:27:51.531Z,57.50
2019-01-29T22:30:28.194Z,57.70
2019-01-29T22:32:56.684Z,57.60
2019-01-29T22:35:25.256Z,57.90
2019-01-29T22:37:53.812Z,57.70
2019-01-29T22:40:24.326Z,57.80
2019-01-29T22:42:52.856Z,57.60
2019-01-29T22:45:21.892Z,57.70
2019-01-29T22:47:50.392Z,57.70
2019-01-29T22:50:24.134Z,57.70
2019-01-29T22:52:52.716Z,57.60
2019-01-29T22:55:21.264Z,57.90
2019-01-29T22:57:49.773Z,57.90
2019-01-29T23:00:26.214Z,58.10
2019-01-29T23:02:54.618Z,58.30
2019-01-29T23:05:23.113Z,58.50
2019-01-29T23:07:51.626Z,58.60
2019-01-29T23:10:21.878Z,58.50
2019-01-29T23:12:50.319Z,58.70
2019-01-29T23:15:19.969Z,58.50
2019-01-29T23:17:48.380Z,58.40
2019-01-29T23:20:17.829Z,58.30
2019-01-29T23:22:46.269Z,58.50
2019-01-29T23:25:14.697Z,58.40
2019-01-29T23:27:43.216Z,58.60
2019-01-29T23:30:20.436Z,58.50
2019-01-29T23:32:48.933Z,58.80
2019-01-29T23:35:17.382Z,58.80
2019-01-29T23:37:45.944Z,58.80
2019-01-29T23:40:17.049Z,58.80
2019-01-29T23:42:45.442Z,58.70
2019-01-29T23:45:17.545Z,58.70
2019-01-29T23:47:46.026Z,59.20
2019-01-29T23:50:15.981Z,58.50
2019-01-29T23:52:44.613Z,58.60
2019-01-29T23:55:13.483Z,58.70
2019-01-29T23:57:41.900Z,58.40
